sensor_id;sensor_type;location;lat;lon;timestamp;temperature;humidity
67557;DHT22;54387;53.526;49.300;2023-03-03T00:00:21;-3.60;61.40
67557;DHT22;54387;53.526;49.300;2023-03-03T00:02:47;-3.60;61.40
67557;DHT22;54387;53.526;49.300;2023-03-03T00:05:13;-3.60;61.30
67557;DHT22;54387;53.526;49.300;2023-03-03T00:07:45;-3.50;61.50
67557;DHT22;54387;53.526;49.300;2023-03-03T00:10:11;-3.50;61.40
67557;DHT22;54387;53.526;49.300;2023-03-03T00:12:44;-3.50;61.40
67557;DHT22;54387;53.526;49.300;2023-03-03T00:15:18;-3.50;61.40
67557;DHT22;54387;53.526;49.300;2023-03-03T00:17:45;-3.50;61.40
67557;DHT22;54387;53.526;49.300;2023-03-03T00:22:53;-3.50;61.50
67557;DHT22;54387;53.526;49.300;2023-03-03T00:25:26;-3.60;61.40
67557;DHT22;54387;53.526;49.300;2023-03-03T00:27:53;-3.50;61.50
67557;DHT22;54387;53.526;49.300;2023-03-03T00:30:23;-3.50;61.60
67557;DHT22;54387;53.526;49.300;2023-03-03T00:32:53;-3.50;61.60
67557;DHT22;54387;53.526;49.300;2023-03-03T00:37:54;-3.50;61.70
67557;DHT22;54387;53.526;49.300;2023-03-03T00:40:21;-3.50;61.70
67557;DHT22;54387;53.526;49.300;2023-03-03T00:42:50;-3.50;61.80
67557;DHT22;54387;53.526;49.300;2023-03-03T00:45:20;-3.50;61.80
67557;DHT22;54387;53.526;49.300;2023-03-03T00:47:48;-3.50;61.80
67557;DHT22;54387;53.526;49.300;2023-03-03T00:50:33;-3.50;61.90
67557;DHT22;54387;53.526;49.300;2023-03-03T00:53:04;-3.40;62.00
67557;DHT22;54387;53.526;49.300;2023-03-03T00:55:31;-3.40;62.00
67557;DHT22;54387;53.526;49.300;2023-03-03T00:57:58;-3.40;62.00
67557;DHT22;54387;53.526;49.300;2023-03-03T01:00:24;-3.40;62.10
67557;DHT22;54387;53.526;49.300;2023-03-03T01:02:50;-3.40;62.20
67557;DHT22;54387;53.526;49.300;2023-03-03T01:05:18;-3.40;62.30
67557;DHT22;54387;53.526;49.300;2023-03-03T01:07:44;-3.40;62.30
67557;DHT22;54387;53.526;49.300;2023-03-03T01:10:11;-3.40;62.30
67557;DHT22;54387;53.526;49.300;2023-03-03T01:12:37;-3.40;62.40
67557;DHT22;54387;53.526;49.300;2023-03-03T01:15:04;-3.40;62.50
67557;DHT22;54387;53.526;49.300;2023-03-03T01:17:31;-3.40;62.60
67557;DHT22;54387;53.526;49.300;2023-03-03T01:19:57;-3.50;62.60
67557;DHT22;54387;53.526;49.300;2023-03-03T01:22:23;-3.50;62.70
67557;DHT22;54387;53.526;49.300;2023-03-03T01:24:50;-3.50;62.80
67557;DHT22;54387;53.526;49.300;2023-03-03T01:27:16;-3.50;62.80
67557;DHT22;54387;53.526;49.300;2023-03-03T01:29:42;-3.50;62.80
67557;DHT22;54387;53.526;49.300;2023-03-03T01:32:08;-3.60;62.80
67557;DHT22;54387;53.526;49.300;2023-03-03T01:34:35;-3.50;62.90
67557;DHT22;54387;53.526;49.300;2023-03-03T01:37:01;-3.60;62.90
67557;DHT22;54387;53.526;49.300;2023-03-03T01:39:27;-3.60;62.90
67557;DHT22;54387;53.526;49.300;2023-03-03T01:41:53;-3.60;63.10
67557;DHT22;54387;53.526;49.300;2023-03-03T01:44:19;-3.70;63.20
67557;DHT22;54387;53.526;49.300;2023-03-03T01:46:57;-3.70;63.40
67557;DHT22;54387;53.526;49.300;2023-03-03T01:49:28;-3.80;63.50
67557;DHT22;54387;53.526;49.300;2023-03-03T01:51:59;-3.80;63.50
67557;DHT22;54387;53.526;49.300;2023-03-03T01:54:30;-3.90;63.70
67557;DHT22;54387;53.526;49.300;2023-03-03T01:57:00;-4.00;63.70
67557;DHT22;54387;53.526;49.300;2023-03-03T01:59:28;-4.00;63.90
67557;DHT22;54387;53.526;49.300;2023-03-03T02:01:56;-4.00;64.00
67557;DHT22;54387;53.526;49.300;2023-03-03T02:04:23;-4.10;64.10
67557;DHT22;54387;53.526;49.300;2023-03-03T02:06:53;-4.00;64.20
67557;DHT22;54387;53.526;49.300;2023-03-03T02:12:04;-4.00;64.20
67557;DHT22;54387;53.526;49.300;2023-03-03T02:14:30;-4.00;64.20
67557;DHT22;54387;53.526;49.300;2023-03-03T02:16:56;-3.90;64.20
67557;DHT22;54387;53.526;49.300;2023-03-03T02:21:49;-3.90;64.10
67557;DHT22;54387;53.526;49.300;2023-03-03T02:24:17;-3.80;64.10
67557;DHT22;54387;53.526;49.300;2023-03-03T02:26:45;-3.80;64.10
67557;DHT22;54387;53.526;49.300;2023-03-03T02:29:12;-3.80;64.10
67557;DHT22;54387;53.526;49.300;2023-03-03T02:31:39;-3.80;64.00
67557;DHT22;54387;53.526;49.300;2023-03-03T02:34:05;-3.70;64.00
67557;DHT22;54387;53.526;49.300;2023-03-03T02:36:32;-3.70;64.00
67557;DHT22;54387;53.526;49.300;2023-03-03T02:39:10;-3.70;64.00
67557;DHT22;54387;53.526;49.300;2023-03-03T02:46:35;-3.50;63.90
67557;DHT22;54387;53.526;49.300;2023-03-03T02:49:02;-3.50;63.80
67557;DHT22;54387;53.526;49.300;2023-03-03T02:51:29;-3.50;63.70
67557;DHT22;54387;53.526;49.300;2023-03-03T02:53:55;-3.50;63.60
67557;DHT22;54387;53.526;49.300;2023-03-03T02:56:22;-3.40;63.60
67557;DHT22;54387;53.526;49.300;2023-03-03T02:58:48;-3.40;63.50
67557;DHT22;54387;53.526;49.300;2023-03-03T03:01:14;-3.40;63.40
67557;DHT22;54387;53.526;49.300;2023-03-03T03:03:41;-3.40;63.30
67557;DHT22;54387;53.526;49.300;2023-03-03T03:06:07;-3.50;63.40
67557;DHT22;54387;53.526;49.300;2023-03-03T03:08:34;-3.50;63.40
67557;DHT22;54387;53.526;49.300;2023-03-03T03:11:02;-3.50;63.40
67557;DHT22;54387;53.526;49.300;2023-03-03T03:13:28;-3.50;63.30
67557;DHT22;54387;53.526;49.300;2023-03-03T03:15:55;-3.50;63.40
67557;DHT22;54387;53.526;49.300;2023-03-03T03:18:21;-3.50;63.30
67557;DHT22;54387;53.526;49.300;2023-03-03T03:20:47;-3.60;63.20
67557;DHT22;54387;53.526;49.300;2023-03-03T03:23:13;-3.50;63.20
67557;DHT22;54387;53.526;49.300;2023-03-03T03:25:39;-3.50;63.20
67557;DHT22;54387;53.526;49.300;2023-03-03T03:28:10;-3.50;63.20
67557;DHT22;54387;53.526;49.300;2023-03-03T03:30:37;-3.50;63.00
67557;DHT22;54387;53.526;49.300;2023-03-03T03:33:03;-3.50;62.90
67557;DHT22;54387;53.526;49.300;2023-03-03T03:35:29;-3.50;62.70
67557;DHT22;54387;53.526;49.300;2023-03-03T03:37:55;-3.40;62.80
67557;DHT22;54387;53.526;49.300;2023-03-03T03:40:21;-3.40;62.80
67557;DHT22;54387;53.526;49.300;2023-03-03T03:42:47;-3.40;62.70
67557;DHT22;54387;53.526;49.300;2023-03-03T03:45:13;-3.40;62.50
67557;DHT22;54387;53.526;49.300;2023-03-03T03:47:40;-3.40;62.50
67557;DHT22;54387;53.526;49.300;2023-03-03T03:50:07;-3.30;62.60
67557;DHT22;54387;53.526;49.300;2023-03-03T03:52:33;-3.30;62.50
67557;DHT22;54387;53.526;49.300;2023-03-03T03:54:59;-3.20;62.40
67557;DHT22;54387;53.526;49.300;2023-03-03T03:57:26;-3.10;62.30
67557;DHT22;54387;53.526;49.300;2023-03-03T03:59:52;-3.10;62.10
67557;DHT22;54387;53.526;49.300;2023-03-03T04:02:18;-3.10;61.90
67557;DHT22;54387;53.526;49.300;2023-03-03T04:04:44;-3.10;61.90
67557;DHT22;54387;53.526;49.300;2023-03-03T04:07:10;-3.00;61.90
67557;DHT22;54387;53.526;49.300;2023-03-03T04:09:36;-3.00;61.90
67557;DHT22;54387;53.526;49.300;2023-03-03T04:12:02;-3.00;62.00
67557;DHT22;54387;53.526;49.300;2023-03-03T04:14:28;-2.90;61.80
67557;DHT22;54387;53.526;49.300;2023-03-03T04:16:55;-2.90;61.70
67557;DHT22;54387;53.526;49.300;2023-03-03T04:19:21;-2.90;61.60
67557;DHT22;54387;53.526;49.300;2023-03-03T04:21:48;-2.80;61.50
67557;DHT22;54387;53.526;49.300;2023-03-03T04:24:14;-2.70;61.50
67557;DHT22;54387;53.526;49.300;2023-03-03T04:26:40;-2.70;61.40
67557;DHT22;54387;53.526;49.300;2023-03-03T04:29:06;-2.60;61.30
67557;DHT22;54387;53.526;49.300;2023-03-03T04:31:32;-2.50;61.10
67557;DHT22;54387;53.526;49.300;2023-03-03T04:33:58;-2.50;60.70
67557;DHT22;54387;53.526;49.300;2023-03-03T04:36:24;-2.50;60.70
67557;DHT22;54387;53.526;49.300;2023-03-03T04:38:50;-2.50;60.20
67557;DHT22;54387;53.526;49.300;2023-03-03T04:41:16;-2.50;60.30
67557;DHT22;54387;53.526;49.300;2023-03-03T04:43:42;-2.50;60.50
67557;DHT22;54387;53.526;49.300;2023-03-03T04:46:08;-2.40;60.30
67557;DHT22;54387;53.526;49.300;2023-03-03T04:48:34;-2.30;60.40
67557;DHT22;54387;53.526;49.300;2023-03-03T04:51:00;-2.30;60.90
67557;DHT22;54387;53.526;49.300;2023-03-03T04:53:26;-2.30;60.20
67557;DHT22;54387;53.526;49.300;2023-03-03T04:55:52;-2.40;60.40
67557;DHT22;54387;53.526;49.300;2023-03-03T04:58:19;-2.40;60.50
67557;DHT22;54387;53.526;49.300;2023-03-03T05:00:55;-2.30;60.70
67557;DHT22;54387;53.526;49.300;2023-03-03T05:03:21;-2.30;60.60
67557;DHT22;54387;53.526;49.300;2023-03-03T05:05:48;-2.20;60.60
67557;DHT22;54387;53.526;49.300;2023-03-03T05:08:14;-2.20;60.70
67557;DHT22;54387;53.526;49.300;2023-03-03T05:10:41;-2.20;60.70
67557;DHT22;54387;53.526;49.300;2023-03-03T05:13:07;-2.30;60.70
67557;DHT22;54387;53.526;49.300;2023-03-03T05:15:34;-2.30;60.90
67557;DHT22;54387;53.526;49.300;2023-03-03T05:18:00;-2.40;61.00
67557;DHT22;54387;53.526;49.300;2023-03-03T05:20:26;-2.50;61.10
67557;DHT22;54387;53.526;49.300;2023-03-03T05:22:53;-2.70;61.30
67557;DHT22;54387;53.526;49.300;2023-03-03T05:25:20;-2.70;61.60
67557;DHT22;54387;53.526;49.300;2023-03-03T05:27:46;-2.70;61.70
67557;DHT22;54387;53.526;49.300;2023-03-03T05:30:12;-2.80;61.80
67557;DHT22;54387;53.526;49.300;2023-03-03T05:32:38;-2.80;61.90
67557;DHT22;54387;53.526;49.300;2023-03-03T05:35:05;-2.80;62.10
67557;DHT22;54387;53.526;49.300;2023-03-03T05:37:31;-2.80;62.20
67557;DHT22;54387;53.526;49.300;2023-03-03T05:39:57;-2.90;62.80
67557;DHT22;54387;53.526;49.300;2023-03-03T05:42:23;-2.90;62.50
67557;DHT22;54387;53.526;49.300;2023-03-03T05:44:50;-2.90;62.70
67557;DHT22;54387;53.526;49.300;2023-03-03T05:47:16;-2.90;62.80
67557;DHT22;54387;53.526;49.300;2023-03-03T05:49:42;-2.80;62.80
67557;DHT22;54387;53.526;49.300;2023-03-03T05:52:08;-2.80;62.90
67557;DHT22;54387;53.526;49.300;2023-03-03T05:54:35;-2.70;63.10
67557;DHT22;54387;53.526;49.300;2023-03-03T05:57:02;-2.70;63.20
67557;DHT22;54387;53.526;49.300;2023-03-03T05:59:28;-2.60;63.30
67557;DHT22;54387;53.526;49.300;2023-03-03T06:01:54;-2.50;63.30
67557;DHT22;54387;53.526;49.300;2023-03-03T06:04:20;-2.40;63.80
67557;DHT22;54387;53.526;49.300;2023-03-03T06:06:47;-2.30;63.40
67557;DHT22;54387;53.526;49.300;2023-03-03T06:09:13;-2.10;63.40
67557;DHT22;54387;53.526;49.300;2023-03-03T06:11:39;-1.90;63.30
67557;DHT22;54387;53.526;49.300;2023-03-03T06:14:06;-1.80;63.20
67557;DHT22;54387;53.526;49.300;2023-03-03T06:16:32;-1.70;63.10
67557;DHT22;54387;53.526;49.300;2023-03-03T06:18:58;-1.70;62.80
67557;DHT22;54387;53.526;49.300;2023-03-03T06:21:24;-1.70;62.90
67557;DHT22;54387;53.526;49.300;2023-03-03T06:23:51;-1.60;62.90
67557;DHT22;54387;53.526;49.300;2023-03-03T06:26:19;-1.60;62.80
67557;DHT22;54387;53.526;49.300;2023-03-03T06:28:45;-1.60;62.70
67557;DHT22;54387;53.526;49.300;2023-03-03T06:31:11;-1.60;62.80
67557;DHT22;54387;53.526;49.300;2023-03-03T06:33:37;-1.40;62.90
67557;DHT22;54387;53.526;49.300;2023-03-03T06:36:04;-1.40;62.70
67557;DHT22;54387;53.526;49.300;2023-03-03T06:38:30;-1.30;62.80
67557;DHT22;54387;53.526;49.300;2023-03-03T06:40:56;-1.30;62.70
67557;DHT22;54387;53.526;49.300;2023-03-03T06:43:23;-1.20;62.60
67557;DHT22;54387;53.526;49.300;2023-03-03T06:45:49;-1.20;62.40
67557;DHT22;54387;53.526;49.300;2023-03-03T06:48:15;-1.20;62.30
67557;DHT22;54387;53.526;49.300;2023-03-03T06:50:42;-1.10;62.50
67557;DHT22;54387;53.526;49.300;2023-03-03T06:53:12;-1.10;62.40
67557;DHT22;54387;53.526;49.300;2023-03-03T06:55:39;-1.00;62.50
67557;DHT22;54387;53.526;49.300;2023-03-03T06:58:19;-0.90;62.50
67557;DHT22;54387;53.526;49.300;2023-03-03T07:00:58;-0.90;62.40
67557;DHT22;54387;53.526;49.300;2023-03-03T07:03:34;-0.80;62.20
67557;DHT22;54387;53.526;49.300;2023-03-03T07:06:01;-0.80;62.10
67557;DHT22;54387;53.526;49.300;2023-03-03T07:08:31;-0.70;62.10
67557;DHT22;54387;53.526;49.300;2023-03-03T07:11:00;-0.50;62.20
67557;DHT22;54387;53.526;49.300;2023-03-03T07:13:27;-0.40;61.80
67557;DHT22;54387;53.526;49.300;2023-03-03T07:15:55;-0.20;61.80
67557;DHT22;54387;53.526;49.300;2023-03-03T07:21:03;0.00;61.50
67557;DHT22;54387;53.526;49.300;2023-03-03T07:23:36;0.20;61.20
67557;DHT22;54387;53.526;49.300;2023-03-03T07:26:08;0.40;61.10
67557;DHT22;54387;53.526;49.300;2023-03-03T07:28:36;0.60;60.60
67557;DHT22;54387;53.526;49.300;2023-03-03T07:31:14;0.70;60.10
67557;DHT22;54387;53.526;49.300;2023-03-03T07:33:44;0.80;59.80
67557;DHT22;54387;53.526;49.300;2023-03-03T07:36:23;0.80;59.10
67557;DHT22;54387;53.526;49.300;2023-03-03T07:38:56;0.70;59.00
67557;DHT22;54387;53.526;49.300;2023-03-03T07:41:22;0.70;58.80
67557;DHT22;54387;53.526;49.300;2023-03-03T07:43:49;0.70;58.80
67557;DHT22;54387;53.526;49.300;2023-03-03T07:46:29;0.80;58.60
67557;DHT22;54387;53.526;49.300;2023-03-03T07:48:59;0.80;58.70
67557;DHT22;54387;53.526;49.300;2023-03-03T07:51:36;0.90;58.50
67557;DHT22;54387;53.526;49.300;2023-03-03T07:56:36;1.10;58.10
67557;DHT22;54387;53.526;49.300;2023-03-03T07:59:22;1.20;57.90
67557;DHT22;54387;53.526;49.300;2023-03-03T08:01:50;1.20;57.60
67557;DHT22;54387;53.526;49.300;2023-03-03T08:04:21;1.20;57.40
67557;DHT22;54387;53.526;49.300;2023-03-03T08:06:50;1.30;57.30
67557;DHT22;54387;53.526;49.300;2023-03-03T08:11:59;1.40;56.50
67557;DHT22;54387;53.526;49.300;2023-03-03T08:14:28;1.30;56.40
67557;DHT22;54387;53.526;49.300;2023-03-03T08:16:55;1.30;56.60
67557;DHT22;54387;53.526;49.300;2023-03-03T08:19:21;1.40;56.80
67557;DHT22;54387;53.526;49.300;2023-03-03T08:21:47;1.50;56.70
67557;DHT22;54387;53.526;49.300;2023-03-03T08:24:13;1.50;56.20
67557;DHT22;54387;53.526;49.300;2023-03-03T08:26:39;1.40;56.30
67557;DHT22;54387;53.526;49.300;2023-03-03T08:29:05;1.40;56.20
67557;DHT22;54387;53.526;49.300;2023-03-03T08:31:32;1.50;56.60
67557;DHT22;54387;53.526;49.300;2023-03-03T08:33:58;1.60;56.30
67557;DHT22;54387;53.526;49.300;2023-03-03T08:36:28;1.70;56.40
67557;DHT22;54387;53.526;49.300;2023-03-03T08:38:53;1.80;56.00
67557;DHT22;54387;53.526;49.300;2023-03-03T08:41:20;1.90;56.00
67557;DHT22;54387;53.526;49.300;2023-03-03T08:43:46;2.00;55.70
67557;DHT22;54387;53.526;49.300;2023-03-03T08:46:12;2.00;55.60
67557;DHT22;54387;53.526;49.300;2023-03-03T08:48:38;2.10;55.10
67557;DHT22;54387;53.526;49.300;2023-03-03T08:51:09;2.20;55.30
67557;DHT22;54387;53.526;49.300;2023-03-03T08:53:35;2.20;54.80
67557;DHT22;54387;53.526;49.300;2023-03-03T08:56:03;2.10;54.70
67557;DHT22;54387;53.526;49.300;2023-03-03T08:58:29;2.00;55.10
67557;DHT22;54387;53.526;49.300;2023-03-03T09:00:55;2.10;55.50
67557;DHT22;54387;53.526;49.300;2023-03-03T09:03:23;2.20;55.60
67557;DHT22;54387;53.526;49.300;2023-03-03T09:05:49;2.40;55.40
67557;DHT22;54387;53.526;49.300;2023-03-03T09:08:15;2.60;54.90
67557;DHT22;54387;53.526;49.300;2023-03-03T09:10:42;2.70;54.60
67557;DHT22;54387;53.526;49.300;2023-03-03T09:13:13;2.70;54.20
67557;DHT22;54387;53.526;49.300;2023-03-03T09:15:39;2.60;53.80
67557;DHT22;54387;53.526;49.300;2023-03-03T09:20:38;2.30;53.80
67557;DHT22;54387;53.526;49.300;2023-03-03T09:25:46;2.20;54.80
67557;DHT22;54387;53.526;49.300;2023-03-03T09:28:26;2.20;54.40
67557;DHT22;54387;53.526;49.300;2023-03-03T09:30:53;2.20;54.70
67557;DHT22;54387;53.526;49.300;2023-03-03T09:35:45;2.30;54.70
67557;DHT22;54387;53.526;49.300;2023-03-03T09:43:16;2.80;53.90
67557;DHT22;54387;53.526;49.300;2023-03-03T09:45:56;2.90;53.40
67557;DHT22;54387;53.526;49.300;2023-03-03T09:51:35;2.80;53.20
67557;DHT22;54387;53.526;49.300;2023-03-03T10:02:08;3.20;52.60
67557;DHT22;54387;53.526;49.300;2023-03-03T10:04:57;3.40;52.70
67557;DHT22;54387;53.526;49.300;2023-03-03T10:07:50;3.70;51.90
67557;DHT22;54387;53.526;49.300;2023-03-03T10:15:42;4.10;50.80
67557;DHT22;54387;53.526;49.300;2023-03-03T10:25:39;5.70;47.10
67557;DHT22;54387;53.526;49.300;2023-03-03T10:33:45;4.30;47.70
67557;DHT22;54387;53.526;49.300;2023-03-03T10:36:19;4.00;48.50
67557;DHT22;54387;53.526;49.300;2023-03-03T10:52:22;3.10;51.60
67557;DHT22;54387;53.526;49.300;2023-03-03T11:02:41;3.20;51.90
67557;DHT22;54387;53.526;49.300;2023-03-03T11:07:56;3.30;52.00
67557;DHT22;54387;53.526;49.300;2023-03-03T11:10:29;3.30;51.50
67557;DHT22;54387;53.526;49.300;2023-03-03T11:13:06;3.30;51.30
67557;DHT22;54387;53.526;49.300;2023-03-03T11:15:40;3.20;51.70
67557;DHT22;54387;53.526;49.300;2023-03-03T11:18:12;3.20;52.00
67557;DHT22;54387;53.526;49.300;2023-03-03T11:25:42;3.20;51.80
67557;DHT22;54387;53.526;49.300;2023-03-03T11:33:17;3.30;51.60
67557;DHT22;54387;53.526;49.300;2023-03-03T11:43:41;3.70;52.00
67557;DHT22;54387;53.526;49.300;2023-03-03T11:46:10;3.70;51.60
67557;DHT22;54387;53.526;49.300;2023-03-03T11:48:57;3.70;51.30
67557;DHT22;54387;53.526;49.300;2023-03-03T11:53:58;3.80;51.40
67557;DHT22;54387;53.526;49.300;2023-03-03T11:56:41;3.80;51.30
67557;DHT22;54387;53.526;49.300;2023-03-03T12:01:52;3.70;50.80
67557;DHT22;54387;53.526;49.300;2023-03-03T12:04:21;3.60;51.00
67557;DHT22;54387;53.526;49.300;2023-03-03T12:30:18;3.50;50.50
67557;DHT22;54387;53.526;49.300;2023-03-03T12:32:52;3.20;51.00
67557;DHT22;54387;53.526;49.300;2023-03-03T12:35:34;3.10;51.30
67557;DHT22;54387;53.526;49.300;2023-03-03T12:38:14;2.90;51.80
67557;DHT22;54387;53.526;49.300;2023-03-03T12:40:45;2.80;52.30
67557;DHT22;54387;53.526;49.300;2023-03-03T12:43:21;2.70;52.50
67557;DHT22;54387;53.526;49.300;2023-03-03T12:46:10;2.60;52.80
67557;DHT22;54387;53.526;49.300;2023-03-03T12:48:44;2.40;53.10
67557;DHT22;54387;53.526;49.300;2023-03-03T12:53:44;2.10;53.80
67557;DHT22;54387;53.526;49.300;2023-03-03T12:56:17;1.90;54.20
67557;DHT22;54387;53.526;49.300;2023-03-03T13:06:28;1.40;55.90
67557;DHT22;54387;53.526;49.300;2023-03-03T13:11:43;1.40;56.20
67557;DHT22;54387;53.526;49.300;2023-03-03T13:14:27;1.30;56.20
67557;DHT22;54387;53.526;49.300;2023-03-03T13:19:27;1.30;56.60
67557;DHT22;54387;53.526;49.300;2023-03-03T13:22:12;1.30;56.80
67557;DHT22;54387;53.526;49.300;2023-03-03T13:27:19;1.20;57.00
67557;DHT22;54387;53.526;49.300;2023-03-03T13:32:34;1.30;57.10
67557;DHT22;54387;53.526;49.300;2023-03-03T13:37:31;1.30;56.90
67557;DHT22;54387;53.526;49.300;2023-03-03T13:42:28;1.20;57.30
67557;DHT22;54387;53.526;49.300;2023-03-03T13:44:57;1.10;57.30
67557;DHT22;54387;53.526;49.300;2023-03-03T13:47:37;1.10;57.50
67557;DHT22;54387;53.526;49.300;2023-03-03T13:55:28;0.80;57.90
67557;DHT22;54387;53.526;49.300;2023-03-03T13:58:04;0.80;58.10
67557;DHT22;54387;53.526;49.300;2023-03-03T14:03:28;0.70;58.60
67557;DHT22;54387;53.526;49.300;2023-03-03T14:11:28;0.50;59.50
67557;DHT22;54387;53.526;49.300;2023-03-03T14:19:08;0.30;60.10
67557;DHT22;54387;53.526;49.300;2023-03-03T14:21:42;0.20;60.30
67557;DHT22;54387;53.526;49.300;2023-03-03T14:26:45;0.10;60.50
67557;DHT22;54387;53.526;49.300;2023-03-03T14:29:19;0.10;60.30
67557;DHT22;54387;53.526;49.300;2023-03-03T14:31:46;0.10;60.50
67557;DHT22;54387;53.526;49.300;2023-03-03T14:36:47;0.00;60.60
67557;DHT22;54387;53.526;49.300;2023-03-03T14:39:29;-0.10;60.70
67557;DHT22;54387;53.526;49.300;2023-03-03T14:41:56;-0.10;61.00
67557;DHT22;54387;53.526;49.300;2023-03-03T14:44:28;-0.10;61.20
67557;DHT22;54387;53.526;49.300;2023-03-03T14:49:36;-0.30;61.50
67557;DHT22;54387;53.526;49.300;2023-03-03T14:52:25;-0.30;61.60
67557;DHT22;54387;53.526;49.300;2023-03-03T14:54:59;-0.30;61.80
67557;DHT22;54387;53.526;49.300;2023-03-03T15:05:27;-0.40;61.90
67557;DHT22;54387;53.526;49.300;2023-03-03T15:07:54;-0.40;62.00
67557;DHT22;54387;53.526;49.300;2023-03-03T15:10:29;-0.40;61.90
67557;DHT22;54387;53.526;49.300;2023-03-03T15:12:56;-0.40;62.20
67557;DHT22;54387;53.526;49.300;2023-03-03T15:15:23;-0.40;62.20
67557;DHT22;54387;53.526;49.300;2023-03-03T15:17:54;-0.40;62.30
67557;DHT22;54387;53.526;49.300;2023-03-03T15:23:02;-0.40;62.50
67557;DHT22;54387;53.526;49.300;2023-03-03T15:25:52;-0.40;62.80
67557;DHT22;54387;53.526;49.300;2023-03-03T15:36:09;-0.20;63.10
67557;DHT22;54387;53.526;49.300;2023-03-03T15:38:45;-0.20;63.20
67557;DHT22;54387;53.526;49.300;2023-03-03T15:43:55;-0.10;63.10
67557;DHT22;54387;53.526;49.300;2023-03-03T15:51:46;-0.10;63.20
67557;DHT22;54387;53.526;49.300;2023-03-03T15:54:29;0.00;63.30
67557;DHT22;54387;53.526;49.300;2023-03-03T15:57:32;0.00;63.40
67557;DHT22;54387;53.526;49.300;2023-03-03T16:02:21;-0.10;63.60
67557;DHT22;54387;53.526;49.300;2023-03-03T16:04:52;-0.10;63.70
67557;DHT22;54387;53.526;49.300;2023-03-03T16:07:42;-0.10;63.90
67557;DHT22;54387;53.526;49.300;2023-03-03T16:15:53;-0.30;64.50
67557;DHT22;54387;53.526;49.300;2023-03-03T16:31:26;-0.60;65.90
67557;DHT22;54387;53.526;49.300;2023-03-03T16:39:01;-0.70;66.20
67557;DHT22;54387;53.526;49.300;2023-03-03T16:41:34;-0.60;66.30
67557;DHT22;54387;53.526;49.300;2023-03-03T16:44:10;-0.60;66.30
67557;DHT22;54387;53.526;49.300;2023-03-03T16:46:38;-0.60;66.30
67557;DHT22;54387;53.526;49.300;2023-03-03T16:54:54;-0.40;66.60
67557;DHT22;54387;53.526;49.300;2023-03-03T16:59:35;-0.40;66.60
67557;DHT22;54387;53.526;49.300;2023-03-03T17:04:44;-0.50;66.40
67557;DHT22;54387;53.526;49.300;2023-03-03T17:07:30;-0.50;66.50
67557;DHT22;54387;53.526;49.300;2023-03-03T17:15:19;-0.80;66.90
67557;DHT22;54387;53.526;49.300;2023-03-03T17:17:51;-0.80;67.00
67557;DHT22;54387;53.526;49.300;2023-03-03T17:20:25;-0.90;67.30
67557;DHT22;54387;53.526;49.300;2023-03-03T17:23:06;-0.90;67.40
67557;DHT22;54387;53.526;49.300;2023-03-03T17:46:42;-0.10;67.10
67557;DHT22;54387;53.526;49.300;2023-03-03T17:51:40;-0.30;67.00
67557;DHT22;54387;53.526;49.300;2023-03-03T17:59:32;-0.60;67.70
67557;DHT22;54387;53.526;49.300;2023-03-03T18:02:14;-0.60;68.00
67557;DHT22;54387;53.526;49.300;2023-03-03T18:15:29;-0.40;68.10
67557;DHT22;54387;53.526;49.300;2023-03-03T18:18:16;-0.30;68.10
67557;DHT22;54387;53.526;49.300;2023-03-03T18:20:48;-0.30;68.20
67557;DHT22;54387;53.526;49.300;2023-03-03T18:26:00;-0.30;68.30
67557;DHT22;54387;53.526;49.300;2023-03-03T18:31:02;-0.30;68.30
67557;DHT22;54387;53.526;49.300;2023-03-03T18:33:42;-0.30;68.40
67557;DHT22;54387;53.526;49.300;2023-03-03T18:36:50;-0.20;68.40
67557;DHT22;54387;53.526;49.300;2023-03-03T18:39:01;-0.20;68.50
67557;DHT22;54387;53.526;49.300;2023-03-03T18:41:34;-0.10;68.60
67557;DHT22;54387;53.526;49.300;2023-03-03T18:44:24;0.00;68.70
67557;DHT22;54387;53.526;49.300;2023-03-03T18:46:52;0.10;68.70
67557;DHT22;54387;53.526;49.300;2023-03-03T18:52:16;0.30;68.50
67557;DHT22;54387;53.526;49.300;2023-03-03T18:54:57;0.30;68.30
67557;DHT22;54387;53.526;49.300;2023-03-03T18:57:23;0.40;68.30
67557;DHT22;54387;53.526;49.300;2023-03-03T19:02:37;0.40;68.20
67557;DHT22;54387;53.526;49.300;2023-03-03T19:17:59;0.10;68.60
67557;DHT22;54387;53.526;49.300;2023-03-03T19:20:25;0.10;68.80
67557;DHT22;54387;53.526;49.300;2023-03-03T19:23:03;0.10;68.90
67557;DHT22;54387;53.526;49.300;2023-03-03T19:25:30;0.10;68.90
67557;DHT22;54387;53.526;49.300;2023-03-03T19:33:02;0.20;68.80
67557;DHT22;54387;53.526;49.300;2023-03-03T19:40:56;0.10;68.90
67557;DHT22;54387;53.526;49.300;2023-03-03T19:43:27;0.10;68.90
67557;DHT22;54387;53.526;49.300;2023-03-03T19:51:14;0.30;68.90
67557;DHT22;54387;53.526;49.300;2023-03-03T19:59:05;0.40;68.70
67557;DHT22;54387;53.526;49.300;2023-03-03T20:01:39;0.40;68.60
67557;DHT22;54387;53.526;49.300;2023-03-03T20:06:46;0.40;68.40
67557;DHT22;54387;53.526;49.300;2023-03-03T20:09:18;0.40;68.50
67557;DHT22;54387;53.526;49.300;2023-03-03T20:16:46;0.40;68.40
67557;DHT22;54387;53.526;49.300;2023-03-03T20:27:17;0.50;68.30
67557;DHT22;54387;53.526;49.300;2023-03-03T20:35:08;0.50;68.10
67557;DHT22;54387;53.526;49.300;2023-03-03T20:50:38;0.30;68.40
67557;DHT22;54387;53.526;49.300;2023-03-03T21:00:37;0.20;68.50
67557;DHT22;54387;53.526;49.300;2023-03-03T21:05:37;0.20;68.40
67557;DHT22;54387;53.526;49.300;2023-03-03T21:08:18;0.30;68.40
67557;DHT22;54387;53.526;49.300;2023-03-03T21:10:44;0.30;68.30
67557;DHT22;54387;53.526;49.300;2023-03-03T21:13:33;0.30;68.20
67557;DHT22;54387;53.526;49.300;2023-03-03T21:16:02;0.30;68.10
67557;DHT22;54387;53.526;49.300;2023-03-03T21:18:31;0.40;68.20
67557;DHT22;54387;53.526;49.300;2023-03-03T21:20:57;0.40;68.10
67557;DHT22;54387;53.526;49.300;2023-03-03T21:23:23;0.40;68.00
67557;DHT22;54387;53.526;49.300;2023-03-03T21:25:53;0.40;68.20
67557;DHT22;54387;53.526;49.300;2023-03-03T21:33:41;0.40;67.80
67557;DHT22;54387;53.526;49.300;2023-03-03T21:36:08;0.30;68.00
67557;DHT22;54387;53.526;49.300;2023-03-03T21:38:35;0.30;68.10
67557;DHT22;54387;53.526;49.300;2023-03-03T21:41:02;0.20;68.30
67557;DHT22;54387;53.526;49.300;2023-03-03T21:43:35;0.20;68.40
67557;DHT22;54387;53.526;49.300;2023-03-03T21:46:03;0.20;68.60
67557;DHT22;54387;53.526;49.300;2023-03-03T21:48:29;0.20;68.70
67557;DHT22;54387;53.526;49.300;2023-03-03T21:50:56;0.30;68.80
67557;DHT22;54387;53.526;49.300;2023-03-03T21:53:22;0.30;68.80
67557;DHT22;54387;53.526;49.300;2023-03-03T21:55:49;0.30;68.80
67557;DHT22;54387;53.526;49.300;2023-03-03T21:58:15;0.30;68.70
67557;DHT22;54387;53.526;49.300;2023-03-03T22:00:41;0.30;68.70
67557;DHT22;54387;53.526;49.300;2023-03-03T22:03:08;0.30;68.60
67557;DHT22;54387;53.526;49.300;2023-03-03T22:05:35;0.40;68.40
67557;DHT22;54387;53.526;49.300;2023-03-03T22:08:01;0.30;68.10